Archival Weather

Phoenix Sky Harbor Intl

Phoenix, Arizona (KPHX)

Report from: Thursday, December 7, 2023 9:51 AM MST
Current time: Monday, July 22, 2024 4:16 AM MST

Current weather – Weather history – Daily summaries
Weather forecast

Temperature17.2°C (63.0°F)
Dew point1.1°C (34.0°F)
Winds 5 kts (2.6 m/s, 5.8 mph) East (100°)
Visibility10 mi. (16.1 km)
Clouds Few clouds 11,000 ft. (3,353 m)
Few clouds 18,000 ft. (5,486 m)
Few clouds 25,000 ft. (7,620 m)
Altimeter30.02 in.Hg (1017 mB)
Relative humidity34 %
Density altitude282 ft. (86 m)
Sea-level pressure101.6 kPa (1016 mB, 29.99 in.Hg)
Remarks Automated weather observing station with precipitation discriminator
Flight conditions Visual Meteorological Conditions
Raw dataKPHX 071651Z 10005KT 10SM FEW110 FEW180 FEW250 17/01 A3002 RMK AO2 SLP156 T01720011
An error has occurred. This application may no longer respond until reloaded. Reload 🗙